Time;durP1;ratioP1;P1;durP2;ratioP2;P2;SDS_P1;SDS_P2;PMS_P1;PMS_P2;Temp;Humidity;BMP_temperature;BMP_pressure;BME280_temperature;BME280_humidity;BME280_pressure;Samples;Min_cycle;Max_cycle;Signal;HPM_P1;HPM_P2
2021/09/01 00:00:58;;;;;;;10.88;5.43;;;16.10;89.00;;;;;;4902777;29;20055;-80
2021/09/01 00:03:23;;;;;;;10.27;4.82;;;16.10;88.70;;;;;;4918123;29;20064;-79
2021/09/01 00:05:49;;;;;;;9.27;5.40;;;16.10;88.30;;;;;;4919350;29;20115;-82
2021/09/01 00:08:15;;;;;;;11.48;5.20;;;16.10;88.30;;;;;;4933871;29;20028;-82
2021/09/01 00:10:41;;;;;;;10.00;4.88;;;16.10;88.20;;;;;;4902753;29;20056;-80
2021/09/01 00:13:07;;;;;;;10.18;4.72;;;16.20;88.20;;;;;;4902736;29;20036;-82
2021/09/01 00:15:33;;;;;;;11.20;4.85;;;16.20;88.00;;;;;;4934177;29;20133;-81
2021/09/01 00:17:59;;;;;;;12.23;4.65;;;16.20;88.00;;;;;;4934440;29;20059;-81
2021/09/01 00:20:26;;;;;;;13.60;4.43;;;16.20;87.90;;;;;;4918204;29;20040;-81
2021/09/01 00:22:52;;;;;;;11.48;4.50;;;16.20;87.80;;;;;;4902693;29;20550;-81
2021/09/01 00:25:18;;;;;;;10.55;4.78;;;16.20;87.70;;;;;;4890143;29;20039;-80
2021/09/01 00:27:44;;;;;;;9.10;4.18;;;16.20;87.60;;;;;;4922890;29;20032;-81
2021/09/01 00:30:10;;;;;;;9.45;4.13;;;16.20;87.40;;;;;;4906891;29;20464;-81
2021/09/01 00:32:36;;;;;;;7.72;4.43;;;16.20;87.40;;;;;;4905363;29;20059;-81
2021/09/01 00:35:02;;;;;;;8.68;3.72;;;16.20;87.20;;;;;;4895535;29;20037;-80
2021/09/01 00:37:28;;;;;;;11.15;3.67;;;16.20;87.20;;;;;;4914225;29;20060;-80
2021/09/01 00:39:53;;;;;;;11.52;3.60;;;16.20;86.60;;;;;;4927735;29;20047;-81
2021/09/01 00:42:19;;;;;;;13.30;4.47;;;16.20;86.70;;;;;;4905929;29;20404;-81
2021/09/01 00:44:46;;;;;;;10.05;3.70;;;16.20;86.40;;;;;;4913039;29;20563;-82
2021/09/01 00:47:18;;;;;;;9.60;4.00;;;16.20;86.40;;;;;;4902146;29;20036;-81
2021/09/01 00:49:44;;;;;;;8.35;3.63;;;16.20;86.40;;;;;;4915233;29;20017;-81
2021/09/01 00:52:12;;;;;;;8.95;3.33;;;16.30;86.40;;;;;;4900449;29;20040;-82
2021/09/01 00:54:38;;;;;;;7.47;3.40;;;16.20;86.20;;;;;;4915305;29;20107;-82
2021/09/01 00:57:06;;;;;;;10.30;3.72;;;16.30;86.40;;;;;;4901722;29;20059;-81
2021/09/01 00:59:34;;;;;;;13.60;4.18;;;16.30;86.40;;;;;;4901524;29;20028;-81
2021/09/01 01:02:02;;;;;;;11.07;4.20;;;16.30;86.30;;;;;;4884358;29;20453;-82
2021/09/01 01:04:29;;;;;;;10.02;4.07;;;16.30;86.30;;;;;;4900285;29;20033;-82
2021/09/01 01:06:56;;;;;;;8.98;3.85;;;16.30;86.30;;;;;;4868773;29;20053;-81
2021/09/01 01:09:22;;;;;;;11.45;3.58;;;16.30;86.20;;;;;;4902010;29;20040;-81
2021/09/01 01:12:11;;;;;;;9.95;3.78;;;16.30;86.20;;;;;;4917145;29;20029;-81
2021/09/01 01:14:44;;;;;;;11.13;4.32;;;16.30;86.20;;;;;;4916491;29;20481;-81
2021/09/01 01:17:16;;;;;;;11.57;3.60;;;16.20;86.60;;;;;;4901236;29;20476;-81
2021/09/01 01:19:43;;;;;;;9.40;3.97;;;16.30;86.40;;;;;;4918412;29;20036;-81
2021/09/01 01:22:14;;;;;;;8.75;3.33;;;16.20;86.20;;;;;;4888275;29;20028;-81
2021/09/01 01:24:52;;;;;;;11.52;4.00;;;16.30;86.30;;;;;;4888207;29;20032;-81
2021/09/01 01:27:29;;;;;;;9.07;3.92;;;16.30;86.40;;;;;;4904997;29;20024;-81
2021/09/01 01:29:58;;;;;;;9.23;3.90;;;16.30;86.40;;;;;;4918870;29;20029;-81
2021/09/01 01:32:24;;;;;;;11.85;3.83;;;16.30;86.40;;;;;;4919226;29;20057;-80
2021/09/01 01:34:50;;;;;;;10.35;3.50;;;16.30;86.30;;;;;;4903293;29;20033;-80
2021/09/01 01:37:15;;;;;;;9.60;3.78;;;16.30;86.30;;;;;;4904194;29;20040;-81
2021/09/01 01:39:41;;;;;;;10.82;4.35;;;16.30;86.30;;;;;;4887223;29;20127;-81
2021/09/01 01:42:07;;;;;;;12.02;4.45;;;16.30;86.30;;;;;;4872599;29;20029;-81
2021/09/01 01:44:32;;;;;;;11.50;3.92;;;16.40;86.40;;;;;;4909613;29;20092;-80
2021/09/01 01:46:58;;;;;;;10.10;4.40;;;16.30;86.20;;;;;;4922337;29;20039;-81
2021/09/01 01:49:24;;;;;;;11.02;4.10;;;16.40;86.30;;;;;;4922383;29;20039;-81
2021/09/01 01:51:50;;;;;;;10.63;3.88;;;16.40;86.80;;;;;;4923712;29;20032;-80
2021/09/01 01:54:17;;;;;;;11.35;3.80;;;16.40;86.40;;;;;;4905632;29;20043;-80
2021/09/01 01:56:43;;;;;;;9.18;3.70;;;16.40;86.50;;;;;;4922675;29;20064;-81
2021/09/01 01:59:09;;;;;;;9.07;3.70;;;16.40;86.50;;;;;;4889305;29;20044;-80
2021/09/01 02:01:35;;;;;;;13.38;4.00;;;16.40;86.50;;;;;;4888913;29;20036;-81
2021/09/01 02:04:01;;;;;;;10.23;3.75;;;16.40;86.50;;;;;;4920589;29;20039;-81
2021/09/01 02:06:27;;;;;;;12.43;4.03;;;16.40;86.50;;;;;;4936519;29;20028;-80
2021/09/01 02:08:52;;;;;;;13.90;4.07;;;16.40;86.50;;;;;;4936292;29;20050;-80
2021/09/01 02:11:18;;;;;;;13.40;4.40;;;16.40;86.50;;;;;;4904128;29;20036;-81
2021/09/01 02:13:44;;;;;;;11.13;3.95;;;16.40;86.40;;;;;;4887927;29;20042;-81
2021/09/01 02:16:10;;;;;;;13.07;4.40;;;16.40;86.50;;;;;;4903391;29;20039;-80
2021/09/01 02:18:36;;;;;;;10.50;3.90;;;16.40;86.40;;;;;;4903955;29;20044;-80
2021/09/01 02:21:02;;;;;;;8.27;3.63;;;16.40;86.40;;;;;;4903800;29;20494;-79
2021/09/01 02:23:28;;;;;;;10.00;4.43;;;16.40;86.50;;;;;;4903238;29;20040;-81
2021/09/01 02:25:53;;;;;;;9.65;3.42;;;16.40;86.50;;;;;;4887884;29;20039;-80
2021/09/01 02:28:20;;;;;;;8.88;4.03;;;16.40;86.40;;;;;;4935515;29;20119;-81
2021/09/01 02:30:46;;;;;;;10.80;4.32;;;16.40;86.50;;;;;;4919715;29;20027;-81
2021/09/01 02:33:11;;;;;;;14.85;4.50;;;16.40;86.40;;;;;;4936379;29;20087;-81
2021/09/01 02:35:37;;;;;;;15.73;3.70;;;16.50;86.40;;;;;;4904787;29;20032;-81
2021/09/01 02:38:04;;;;;;;11.45;4.35;;;16.40;86.30;;;;;;4888743;29;20119;-81
2021/09/01 02:40:30;;;;;;;10.23;3.70;;;16.40;86.40;;;;;;4919872;29;20512;-81
2021/09/01 02:42:56;;;;;;;8.40;3.70;;;16.40;86.50;;;;;;4904036;29;20032;-79
2021/09/01 02:45:21;;;;;;;9.52;3.70;;;16.40;86.40;;;;;;4924477;29;20052;-81
2021/09/01 02:47:47;;;;;;;13.38;4.30;;;16.40;86.40;;;;;;4902024;29;20469;-81
2021/09/01 02:50:14;;;;;;;8.18;3.78;;;16.40;86.40;;;;;;4885768;29;20041;-81
2021/09/01 02:52:41;;;;;;;9.65;3.55;;;16.40;86.40;;;;;;4885904;29;20036;-79
2021/09/01 02:55:07;;;;;;;9.40;4.03;;;16.50;86.30;;;;;;4916677;29;20029;-81
2021/09/01 02:57:33;;;;;;;11.77;3.78;;;16.40;86.30;;;;;;4884788;29;20503;-81
2021/09/01 02:59:59;;;;;;;10.85;3.88;;;16.40;86.40;;;;;;4900434;29;20032;-80
2021/09/01 03:02:24;;;;;;;9.63;4.07;;;16.40;86.50;;;;;;4885312;29;20464;-81
2021/09/01 03:04:50;;;;;;;11.57;4.00;;;16.40;86.60;;;;;;4884196;29;20543;-81
2021/09/01 03:07:16;;;;;;;12.35;3.90;;;16.40;86.70;;;;;;4898126;29;20044;-80
2021/09/01 03:09:41;;;;;;;10.13;3.88;;;16.40;86.80;;;;;;4869038;29;20498;-81
2021/09/01 03:12:07;;;;;;;10.10;4.05;;;16.30;86.70;;;;;;4868339;29;20080;-79
2021/09/01 03:14:33;;;;;;;10.30;4.43;;;16.30;86.70;;;;;;4900677;29;20040;-80
2021/09/01 03:16:58;;;;;;;13.35;4.18;;;16.30;86.90;;;;;;4883166;29;20425;-80
2021/09/01 03:19:24;;;;;;;11.52;3.90;;;16.20;86.90;;;;;;4915130;29;20436;-80
2021/09/01 03:21:50;;;;;;;8.57;3.45;;;16.20;86.90;;;;;;4899396;29;20491;-80
2021/09/01 03:24:16;;;;;;;10.27;4.15;;;16.20;86.80;;;;;;4915280;29;20119;-81
2021/09/01 03:26:42;;;;;;;14.30;3.97;;;16.20;87.00;;;;;;4885118;29;20069;-79
2021/09/01 03:29:08;;;;;;;12.60;3.75;;;16.20;87.10;;;;;;4900164;29;20039;-80
2021/09/01 03:31:33;;;;;;;8.25;3.58;;;16.10;87.00;;;;;;4900481;29;20039;-81
2021/09/01 03:33:59;;;;;;;10.52;3.90;;;16.20;87.10;;;;;;4886095;29;20120;-80
2021/09/01 03:36:25;;;;;;;15.43;4.30;;;16.20;87.10;;;;;;4871258;29;20052;-82
2021/09/01 03:38:51;;;;;;;13.00;4.57;;;16.20;87.10;;;;;;4870783;29;20468;-79
2021/09/01 03:41:17;;;;;;;10.73;4.10;;;16.20;87.10;;;;;;4917320;29;20490;-82
2021/09/01 03:43:42;;;;;;;10.13;4.22;;;16.20;87.10;;;;;;4906215;29;20041;-81
2021/09/01 03:46:10;;;;;;;11.85;3.75;;;16.20;87.10;;;;;;4905311;29;20068;-80
2021/09/01 03:48:36;;;;;;;14.48;4.63;;;16.20;87.20;;;;;;4922560;29;20036;-81
2021/09/01 03:51:01;;;;;;;12.23;3.63;;;16.20;87.10;;;;;;4901669;29;20056;-81
2021/09/01 03:53:27;;;;;;;12.85;3.97;;;16.10;87.10;;;;;;4883379;29;20123;-80
2021/09/01 03:55:53;;;;;;;12.88;3.92;;;16.10;87.10;;;;;;4900692;29;20032;-80
2021/09/01 03:58:18;;;;;;;13.70;4.00;;;16.10;87.20;;;;;;4900651;29;20386;-79
2021/09/01 04:00:44;;;;;;;12.88;4.93;;;16.10;87.10;;;;;;4868076;29;20029;-81
2021/09/01 04:03:10;;;;;;;10.85;3.50;;;16.10;87.10;;;;;;4914055;29;20065;-80
2021/09/01 04:05:36;;;;;;;11.52;4.20;;;16.10;87.20;;;;;;4881812;29;20040;-79
2021/09/01 04:08:02;;;;;;;13.95;3.60;;;16.10;87.20;;;;;;4882453;29;20041;-80
2021/09/01 04:10:28;;;;;;;11.68;3.63;;;16.10;87.20;;;;;;4898697;29;20040;-80
2021/09/01 04:12:54;;;;;;;9.93;3.55;;;16.10;87.10;;;;;;4897915;29;20040;-80
2021/09/01 04:15:19;;;;;;;11.57;3.88;;;16.10;87.30;;;;;;4897946;29;20437;-82
2021/09/01 04:17:45;;;;;;;9.77;3.38;;;16.10;87.00;;;;;;4881214;29;20040;-81
2021/09/01 04:20:11;;;;;;;11.95;3.78;;;16.00;87.00;;;;;;4881386;29;20084;-81
2021/09/01 04:22:37;;;;;;;9.43;3.80;;;16.00;87.00;;;;;;4896801;29;20385;-80
2021/09/01 04:25:03;;;;;;;8.52;3.50;;;16.00;87.10;;;;;;4880921;29;20051;-80
2021/09/01 04:27:29;;;;;;;11.60;3.67;;;16.00;87.10;;;;;;4881622;29;20044;-80
2021/09/01 04:29:54;;;;;;;10.18;3.58;;;16.10;87.20;;;;;;4880856;29;20033;-80
2021/09/01 04:32:20;;;;;;;9.98;4.03;;;16.10;87.10;;;;;;4865634;29;20487;-81
2021/09/01 04:34:46;;;;;;;11.70;3.92;;;16.10;87.00;;;;;;4881177;29;20469;-80
2021/09/01 04:37:11;;;;;;;10.00;3.53;;;16.10;87.00;;;;;;4881597;29;20075;-81
2021/09/01 04:39:38;;;;;;;12.23;3.65;;;16.10;86.90;;;;;;4880949;29;20472;-80
2021/09/01 04:42:04;;;;;;;10.57;3.75;;;16.10;86.90;;;;;;4880732;29;20033;-81
2021/09/01 04:44:30;;;;;;;12.52;4.03;;;16.10;86.70;;;;;;4885932;29;20156;-81
2021/09/01 04:46:56;;;;;;;12.25;3.17;;;16.10;86.50;;;;;;4900512;29;20040;-80
2021/09/01 04:49:22;;;;;;;12.68;3.65;;;16.10;86.50;;;;;;4931789;29;20060;-81
2021/09/01 04:51:47;;;;;;;12.02;3.47;;;16.10;86.50;;;;;;4915830;29;20460;-80
2021/09/01 04:54:13;;;;;;;9.23;3.25;;;16.00;86.50;;;;;;4935115;29;20036;-81
2021/09/01 04:56:39;;;;;;;14.32;4.15;;;16.00;86.40;;;;;;4920504;29;20438;-81
2021/09/01 04:59:05;;;;;;;13.73;3.95;;;16.00;86.40;;;;;;4920104;29;20087;-80
2021/09/01 05:01:30;;;;;;;10.02;3.08;;;16.10;86.50;;;;;;4935166;29;20028;-81
2021/09/01 05:03:56;;;;;;;10.23;3.75;;;16.10;86.60;;;;;;4919272;29;20033;-80
2021/09/01 05:06:21;;;;;;;9.98;3.58;;;16.10;86.50;;;;;;4918545;29;20039;-81
2021/09/01 05:08:47;;;;;;;9.90;3.60;;;16.20;86.60;;;;;;4920120;29;20029;-81
2021/09/01 05:11:13;;;;;;;10.57;3.60;;;16.20;86.50;;;;;;4918671;29;20472;-81
2021/09/01 05:13:39;;;;;;;11.50;3.50;;;16.20;86.30;;;;;;4903328;29;20036;-82
2021/09/01 05:16:05;;;;;;;10.10;3.58;;;16.20;86.20;;;;;;4918671;29;20099;-80
2021/09/01 05:18:31;;;;;;;11.00;3.90;;;16.20;86.10;;;;;;4903926;29;20449;-81
2021/09/01 05:20:59;;;;;;;11.68;3.70;;;16.20;86.00;;;;;;4918658;29;20032;-80
2021/09/01 05:23:32;;;;;;;10.50;3.10;;;16.20;86.10;;;;;;4935604;29;20036;-80
2021/09/01 05:26:03;;;;;;;11.10;3.85;;;16.20;86.00;;;;;;4904353;29;20463;-81
2021/09/01 05:28:34;;;;;;;14.25;3.38;;;16.20;86.00;;;;;;4905159;29;20337;-81
2021/09/01 05:31:02;;;;;;;10.30;3.55;;;16.30;86.00;;;;;;4935703;29;20028;-81
2021/09/01 05:33:30;;;;;;;9.00;3.28;;;16.20;86.20;;;;;;4920427;29;20055;-81
2021/09/01 05:35:57;;;;;;;11.77;3.95;;;16.20;86.00;;;;;;4904638;29;20386;-82
2021/09/01 05:38:23;;;;;;;11.10;4.32;;;16.20;85.90;;;;;;4903612;29;20043;-81
2021/09/01 05:40:51;;;;;;;11.90;3.75;;;16.20;85.70;;;;;;4903592;29;20490;-81
2021/09/01 05:43:20;;;;;;;14.75;4.05;;;16.20;85.70;;;;;;4902550;29;20040;-81
2021/09/01 05:45:47;;;;;;;12.63;3.90;;;16.30;85.70;;;;;;4919998;29;20052;-81
2021/09/01 05:48:13;;;;;;;14.20;3.78;;;16.40;85.70;;;;;;4919428;29;20032;-81
2021/09/01 05:50:42;;;;;;;11.95;3.83;;;16.40;85.30;;;;;;4918377;29;20032;-81
2021/09/01 05:53:11;;;;;;;12.82;3.90;;;16.30;85.00;;;;;;4887669;29;20409;-81
2021/09/01 05:55:43;;;;;;;9.55;3.65;;;16.30;85.00;;;;;;4902839;29;20100;-81
2021/09/01 05:58:17;;;;;;;13.15;4.00;;;16.30;84.90;;;;;;4902695;29;20035;-80
2021/09/01 06:00:44;;;;;;;12.07;3.80;;;16.40;84.70;;;;;;4919275;29;20502;-81
2021/09/01 06:03:25;;;;;;;9.43;4.55;;;16.40;84.70;;;;;;4933839;29;20440;-81
2021/09/01 06:05:55;;;;;;;9.60;3.47;;;16.40;84.60;;;;;;4934826;29;20385;-81
2021/09/01 06:08:24;;;;;;;8.77;3.38;;;16.40;84.50;;;;;;4920657;29;20206;-81
2021/09/01 06:10:54;;;;;;;10.25;3.40;;;16.40;84.60;;;;;;4921410;29;20029;-82
2021/09/01 06:13:21;;;;;;;12.25;3.70;;;16.50;84.50;;;;;;4937484;29;20535;-81
2021/09/01 06:15:46;;;;;;;10.60;2.92;;;16.50;84.50;;;;;;4921960;29;20028;-81
2021/09/01 06:18:12;;;;;;;12.07;3.63;;;16.50;84.20;;;;;;4907945;29;20043;-81
2021/09/01 06:20:39;;;;;;;8.88;2.95;;;16.60;84.20;;;;;;4908293;29;20060;-81
2021/09/01 06:23:05;;;;;;;10.20;3.17;;;16.60;84.20;;;;;;4940427;29;20562;-80
2021/09/01 06:25:31;;;;;;;11.00;3.67;;;16.60;84.10;;;;;;4925013;29;20028;-82
2021/09/01 06:27:57;;;;;;;13.07;3.08;;;16.70;84.00;;;;;;4940824;29;20121;-80
2021/09/01 06:30:23;;;;;;;9.05;2.72;;;16.60;83.80;;;;;;4910053;29;20032;-81
2021/09/01 06:32:49;;;;;;;11.68;4.00;;;16.60;83.90;;;;;;4942277;29;20147;-81
2021/09/01 06:35:16;;;;;;;7.43;3.75;;;16.70;84.10;;;;;;4927319;29;20032;-80
2021/09/01 06:37:43;;;;;;;10.15;3.65;;;16.80;84.10;;;;;;4926734;29;20123;-81
2021/09/01 06:40:10;;;;;;;14.80;4.90;;;16.80;83.60;;;;;;4925846;29;20035;-81
2021/09/01 06:42:36;;;;;;;13.65;5.68;;;16.80;83.50;;;;;;4905850;29;20032;-82
2021/09/01 06:45:02;;;;;;;11.98;5.40;;;16.70;83.60;;;;;;4901769;29;20063;-81
2021/09/01 06:47:41;;;;;;;13.38;4.95;;;16.80;83.60;;;;;;4918105;29;20115;-82
2021/09/01 06:50:08;;;;;;;11.95;5.03;;;16.80;83.40;;;;;;4918755;29;20483;-81
2021/09/01 06:52:33;;;;;;;14.05;5.90;;;16.80;83.70;;;;;;4918460;29;20032;-81
2021/09/01 06:54:59;;;;;;;13.32;6.68;;;16.80;83.40;;;;;;4888954;29;20036;-81
2021/09/01 06:57:24;;;;;;;12.48;6.28;;;16.90;83.40;;;;;;4914452;29;20036;-80
2021/09/01 06:59:50;;;;;;;17.13;6.90;;;16.90;83.30;;;;;;4899471;29;20028;-81
2021/09/01 07:02:16;;;;;;;15.90;7.00;;;16.90;83.30;;;;;;4912011;29;20032;-82
2021/09/01 07:04:41;;;;;;;13.82;7.28;;;17.00;82.90;;;;;;4901964;29;20040;-81
2021/09/01 07:07:07;;;;;;;12.95;6.70;;;17.00;82.80;;;;;;4886036;29;20428;-81
2021/09/01 07:09:33;;;;;;;14.10;6.43;;;17.00;82.60;;;;;;4901710;29;20032;-82
2021/09/01 07:11:58;;;;;;;18.42;8.43;;;17.00;82.40;;;;;;4901354;29;20365;-81
2021/09/01 07:14:24;;;;;;;14.93;6.60;;;17.10;82.40;;;;;;4900921;29;20040;-81
2021/09/01 07:16:49;;;;;;;12.55;6.10;;;17.10;82.10;;;;;;4918294;29;20040;-81
2021/09/01 07:19:15;;;;;;;15.20;6.88;;;17.10;81.90;;;;;;4901000;29;20556;-81
2021/09/01 07:21:40;;;;;;;11.77;6.10;;;17.20;81.80;;;;;;4901594;29;20039;-81
2021/09/01 07:24:06;;;;;;;13.45;5.57;;;17.20;81.60;;;;;;4901790;29;20044;-82
2021/09/01 07:26:32;;;;;;;14.05;6.25;;;17.20;81.30;;;;;;4887068;29;20450;-82
2021/09/01 07:28:57;;;;;;;14.57;6.20;;;17.20;81.00;;;;;;4902017;29;20036;-81
2021/09/01 07:31:23;;;;;;;13.52;6.72;;;17.20;81.10;;;;;;4902537;29;20060;-81
2021/09/01 07:33:49;;;;;;;15.70;6.60;;;17.30;81.10;;;;;;4903675;29;20158;-81
2021/09/01 07:36:14;;;;;;;15.32;8.23;;;17.30;81.10;;;;;;4937044;29;20024;-81
2021/09/01 07:38:40;;;;;;;17.25;7.65;;;17.40;81.20;;;;;;4903885;29;20399;-81
2021/09/01 07:41:06;;;;;;;19.88;7.13;;;17.40;81.00;;;;;;4905096;29;20416;-81
2021/09/01 07:43:31;;;;;;;16.35;5.50;;;17.40;80.60;;;;;;4922465;29;20511;-82
2021/09/01 07:45:58;;;;;;;21.23;8.07;;;17.40;80.20;;;;;;4908223;29;20060;-81
2021/09/01 07:48:24;;;;;;;23.05;8.48;;;17.40;80.50;;;;;;4916112;29;20032;-80
2021/09/01 07:50:51;;;;;;;29.75;11.15;;;17.40;80.50;;;;;;4923023;29;20024;-80
2021/09/01 07:53:17;;;;;;;26.75;10.82;;;17.40;80.90;;;;;;4907561;29;20035;-79
2021/09/01 07:55:42;;;;;;;26.45;11.98;;;17.40;81.20;;;;;;4921212;29;20452;-79
2021/09/01 07:58:08;;;;;;;22.65;10.55;;;17.50;81.30;;;;;;4905901;29;20033;-81
2021/09/01 08:00:34;;;;;;;24.92;11.93;;;17.50;81.30;;;;;;4920925;29;20036;-80
2021/09/01 08:02:59;;;;;;;20.83;9.73;;;17.60;81.40;;;;;;4918889;29;20028;-81
2021/09/01 08:05:25;;;;;;;24.75;11.82;;;17.60;80.90;;;;;;4899591;29;20036;-83
2021/09/01 08:07:51;;;;;;;19.95;9.23;;;17.60;80.70;;;;;;4884795;29;20209;-82
2021/09/01 08:10:17;;;;;;;15.73;7.43;;;17.50;80.40;;;;;;4915888;29;20029;-82
2021/09/01 08:12:42;;;;;;;14.93;6.80;;;17.60;80.60;;;;;;4915561;29;20036;-80
2021/09/01 08:15:10;;;;;;;17.10;4.93;;;17.60;80.10;;;;;;4899601;29;20064;-80
2021/09/01 08:17:36;;;;;;;16.08;6.32;;;17.50;78.70;;;;;;4900394;29;20032;-81
2021/09/01 08:20:03;;;;;;;13.75;6.32;;;17.50;79.30;;;;;;4917184;29;20043;-81
2021/09/01 08:22:29;;;;;;;13.38;5.07;;;17.60;79.40;;;;;;4931693;29;20388;-81
2021/09/01 08:24:55;;;;;;;15.20;6.88;;;17.60;78.90;;;;;;4915683;29;20094;-80
2021/09/01 08:27:20;;;;;;;18.13;8.52;;;17.60;79.00;;;;;;4916366;29;20115;-79
2021/09/01 08:29:46;;;;;;;13.82;7.40;;;17.70;79.00;;;;;;4920637;29;20376;-79
2021/09/01 08:32:12;;;;;;;15.88;8.18;;;17.80;78.90;;;;;;4920711;29;20111;-79
2021/09/01 08:34:41;;;;;;;10.65;5.50;;;17.90;78.40;;;;;;4903821;29;20495;-80
2021/09/01 08:37:07;;;;;;;14.45;6.53;;;18.00;77.50;;;;;;4920438;29;20036;-80
2021/09/01 08:39:33;;;;;;;14.20;5.40;;;18.00;77.50;;;;;;4920304;29;20028;-80
2021/09/01 08:42:00;;;;;;;13.73;4.93;;;18.00;77.10;;;;;;4918831;29;20127;-80
2021/09/01 08:44:25;;;;;;;15.05;5.40;;;18.10;76.60;;;;;;4914457;29;20059;-80
2021/09/01 08:46:52;;;;;;;11.95;4.90;;;18.10;76.60;;;;;;4900042;29;20032;-79
2021/09/01 08:49:20;;;;;;;9.13;3.85;;;18.10;76.30;;;;;;4884352;29;20396;-81
2021/09/01 08:51:49;;;;;;;8.02;4.32;;;18.00;75.40;;;;;;4901786;29;20021;-81
2021/09/01 08:54:15;;;;;;;10.82;5.05;;;18.00;75.90;;;;;;4884781;29;20388;-81
2021/09/01 08:56:42;;;;;;;12.05;5.18;;;18.00;76.10;;;;;;4916140;29;20417;-82
2021/09/01 08:59:08;;;;;;;13.15;6.18;;;18.00;75.90;;;;;;4900295;29;20091;-81
2021/09/01 09:01:48;;;;;;;10.23;3.90;;;18.10;75.60;;;;;;4916359;29;20031;-84
2021/09/01 09:04:29;;;;;;;11.60;3.70;;;18.20;75.10;;;;;;4916653;29;20092;-80
2021/09/01 09:07:24;;;;;;;9.23;3.95;;;18.30;74.60;;;;;;4916285;29;20028;-81
2021/09/01 09:09:51;;;;;;;10.02;3.60;;;18.30;74.30;;;;;;4868150;29;20482;-81
2021/09/01 09:12:17;;;;;;;7.00;3.42;;;18.40;74.20;;;;;;4901653;29;20472;-80
2021/09/01 09:14:48;;;;;;;11.27;4.95;;;18.50;73.50;;;;;;4915852;29;20536;-82
2021/09/01 09:17:21;;;;;;;13.45;5.28;;;18.70;73.30;;;;;;4902398;29;20099;-81
2021/09/01 09:19:50;;;;;;;8.85;3.85;;;18.90;72.80;;;;;;4916518;29;20079;-80
2021/09/01 09:22:26;;;;;;;9.18;2.78;;;19.10;72.10;;;;;;4884392;29;20076;-81
2021/09/01 09:25:09;;;;;;;11.57;3.25;;;19.10;71.20;;;;;;4901437;29;20084;-80
2021/09/01 09:27:48;;;;;;;10.95;4.13;;;19.10;71.60;;;;;;4883986;29;20119;-79
2021/09/01 09:30:20;;;;;;;12.13;4.03;;;19.20;71.40;;;;;;4915221;29;20025;-80
2021/09/01 09:32:57;;;;;;;13.07;3.58;;;19.30;71.20;;;;;;4883597;29;20029;-80
2021/09/01 09:35:25;;;;;;;12.07;3.47;;;19.20;70.20;;;;;;4883692;29;20028;-80
2021/09/01 09:38:05;;;;;;;10.77;3.88;;;19.20;70.40;;;;;;4884142;29;20032;-80
2021/09/01 09:40:36;;;;;;;13.15;3.20;;;19.00;70.40;;;;;;4913986;29;20031;-81
2021/09/01 09:43:18;;;;;;;12.32;2.80;;;18.90;69.70;;;;;;4900111;29;20539;-79
2021/09/01 09:45:49;;;;;;;10.35;3.65;;;18.80;70.00;;;;;;4912394;29;20108;-81
2021/09/01 09:48:25;;;;;;;11.70;3.90;;;18.80;69.80;;;;;;4933900;29;20036;-81
2021/09/01 09:51:04;;;;;;;12.57;3.30;;;19.00;69.90;;;;;;4919370;29;20020;-82
2021/09/01 09:54:15;;;;;;;8.82;2.28;;;19.20;69.90;;;;;;4901740;29;20040;-81
2021/09/01 09:57:05;;;;;;;9.77;3.13;;;19.20;68.50;;;;;;4882338;29;20040;-81
2021/09/01 09:59:33;;;;;;;8.98;3.03;;;19.50;69.00;;;;;;4920142;29;20059;-82
2021/09/01 10:01:59;;;;;;;8.52;2.28;;;19.80;69.00;;;;;;4936168;29;20032;-81
2021/09/01 10:04:26;;;;;;;8.40;2.30;;;20.10;67.60;;;;;;4903208;29;20052;-82
2021/09/01 10:07:10;;;;;;;11.75;3.10;;;20.40;67.10;;;;;;4886561;29;20142;-81
2021/09/01 10:09:37;;;;;;;6.60;1.77;;;20.60;65.00;;;;;;4920819;29;20025;-80
2021/09/01 10:12:03;;;;;;;8.40;2.58;;;20.60;64.30;;;;;;4890562;29;20131;-81
2021/09/01 10:14:30;;;;;;;7.68;1.80;;;20.30;64.90;;;;;;4891781;29;20070;-82
2021/09/01 10:17:14;;;;;;;9.52;2.17;;;20.20;64.30;;;;;;4920409;29;20031;-82
2021/09/01 10:19:41;;;;;;;9.82;2.40;;;19.90;64.60;;;;;;4906095;29;20106;-82
2021/09/01 10:22:07;;;;;;;8.65;1.70;;;19.50;65.20;;;;;;4934890;29;20029;-82
2021/09/01 10:24:41;;;;;;;12.07;3.40;;;19.30;65.70;;;;;;4902036;29;20044;-82
2021/09/01 10:27:16;;;;;;;18.52;5.32;;;19.30;67.10;;;;;;4918050;29;20035;-82
2021/09/01 10:29:54;;;;;;;8.10;2.10;;;19.60;67.50;;;;;;4918755;29;20168;-82
2021/09/01 10:32:30;;;;;;;7.85;2.53;;;19.90;64.90;;;;;;4918764;29;20020;-81
2021/09/01 10:35:15;;;;;;;13.05;3.40;;;19.60;64.90;;;;;;4901601;29;20065;-80
2021/09/01 10:37:51;;;;;;;12.75;3.38;;;19.70;66.30;;;;;;4901687;29;20469;-81
2021/09/01 10:40:23;;;;;;;9.07;2.92;;;20.00;66.30;;;;;;4901668;29;20032;-82
2021/09/01 10:42:52;;;;;;;12.65;2.45;;;20.30;65.50;;;;;;4918570;29;20091;-82
2021/09/01 10:45:21;;;;;;;10.88;3.00;;;20.50;64.40;;;;;;4897780;29;20060;-80
2021/09/01 10:47:50;;;;;;;9.75;3.13;;;20.30;64.90;;;;;;4913213;29;20033;-80
2021/09/01 10:50:30;;;;;;;11.18;2.60;;;20.50;65.50;;;;;;4881550;29;20155;-80
2021/09/01 10:53:03;;;;;;;9.48;2.25;;;20.50;64.60;;;;;;4899080;29;20029;-79
2021/09/01 10:55:30;;;;;;;11.20;2.85;;;20.50;64.70;;;;;;4913641;29;20342;-79
2021/09/01 10:58:15;;;;;;;11.95;3.00;;;20.50;63.80;;;;;;4897808;29;20034;-80
2021/09/01 11:00:42;;;;;;;9.45;2.35;;;20.10;63.90;;;;;;4899396;29;20087;-78
2021/09/01 11:03:07;;;;;;;8.63;3.15;;;19.70;65.10;;;;;;4914071;29;20024;-80
2021/09/01 11:05:34;;;;;;;9.10;3.03;;;19.80;65.40;;;;;;4899578;29;20039;-80
2021/09/01 11:07:59;;;;;;;9.13;2.72;;;19.80;64.90;;;;;;4898567;29;20062;-79
2021/09/01 11:10:29;;;;;;;8.75;3.05;;;19.90;65.90;;;;;;4898407;29;20528;-79
2021/09/01 11:13:01;;;;;;;13.48;3.03;;;19.80;65.00;;;;;;4882324;29;20043;-80
2021/09/01 11:15:28;;;;;;;12.48;3.05;;;19.70;65.40;;;;;;4897621;29;20392;-80
2021/09/01 11:18:05;;;;;;;8.93;3.40;;;19.60;66.00;;;;;;4882390;29;20041;-79
2021/09/01 11:20:31;;;;;;;10.77;3.03;;;19.60;65.80;;;;;;4899016;29;20034;-80
2021/09/01 11:23:01;;;;;;;10.73;3.38;;;19.50;66.00;;;;;;4882400;29;20116;-79
2021/09/01 11:25:29;;;;;;;7.15;2.45;;;19.40;66.20;;;;;;4899251;29;20029;-80
2021/09/01 11:27:57;;;;;;;8.55;2.50;;;19.40;66.70;;;;;;4882187;29;20036;-80
2021/09/01 11:30:33;;;;;;;11.63;5.85;;;19.20;66.50;;;;;;4898934;29;20028;-81
2021/09/01 11:32:59;;;;;;;10.50;4.15;;;19.20;67.40;;;;;;4882226;29;20028;-81
2021/09/01 11:35:29;;;;;;;8.77;4.13;;;19.50;67.50;;;;;;4883779;29;20465;-81
2021/09/01 11:38:00;;;;;;;9.40;3.05;;;19.80;67.10;;;;;;4882795;29;20037;-80
2021/09/01 11:40:33;;;;;;;12.40;3.28;;;19.80;66.10;;;;;;4899579;29;20032;-80
2021/09/01 11:42:59;;;;;;;8.68;2.70;;;19.80;66.20;;;;;;4898365;29;20028;-81
2021/09/01 11:45:26;;;;;;;7.35;2.72;;;19.80;65.60;;;;;;4913476;29;20041;-80
2021/09/01 11:47:57;;;;;;;12.27;6.13;;;19.80;65.90;;;;;;4899081;29;20032;-82
2021/09/01 11:50:23;;;;;;;10.60;3.63;;;20.00;66.60;;;;;;4913539;29;20031;-81
2021/09/01 11:52:53;;;;;;;9.43;2.80;;;20.00;65.00;;;;;;4898732;29;20036;-81
2021/09/01 11:58:55;;;;;;;8.50;2.97;;;19.60;66.00;;;;;;4898340;29;20461;-82
2021/09/01 12:01:20;;;;;;;13.68;3.78;;;19.50;66.70;;;;;;4913064;29;20024;-81
2021/09/01 12:03:46;;;;;;;10.63;3.55;;;19.50;66.40;;;;;;4866068;29;20048;-81
2021/09/01 12:06:12;;;;;;;9.43;3.00;;;19.80;66.70;;;;;;4897367;29;20029;-82
2021/09/01 12:08:46;;;;;;;6.57;2.83;;;19.70;65.80;;;;;;4865842;29;20037;-82
2021/09/01 12:11:13;;;;;;;7.90;2.50;;;19.80;65.60;;;;;;4898747;29;20432;-81
2021/09/01 12:13:40;;;;;;;8.52;2.90;;;19.80;64.40;;;;;;4898627;29;20045;-81
2021/09/01 12:16:06;;;;;;;10.70;2.88;;;19.90;65.10;;;;;;4898656;29;20032;-79
2021/09/01 12:18:49;;;;;;;13.32;3.55;;;20.00;64.90;;;;;;4881296;29;20033;-81
2021/09/01 12:21:41;;;;;;;;;;;20.00;64.90;;;;;;4898209;29;20025;-80
2021/09/01 12:24:20;;;;;;;8.73;2.50;;;19.90;64.60;;;;;;4898158;29;19967;-81
2021/09/01 12:26:51;;;;;;;10.85;3.20;;;19.90;64.90;;;;;;4899741;29;20036;-81
2021/09/01 12:29:25;;;;;;;9.90;3.55;;;20.10;64.70;;;;;;4914075;29;20029;-80
2021/09/01 12:31:52;;;;;;;6.85;2.58;;;20.30;64.30;;;;;;4912667;29;20111;-81
2021/09/01 12:34:24;;;;;;;7.68;3.03;;;20.70;64.40;;;;;;4881803;29;20032;-80
2021/09/01 12:36:58;;;;;;;8.05;3.55;;;20.60;62.50;;;;;;4881296;29;20036;-81
2021/09/01 12:39:23;;;;;;;9.43;3.38;;;20.70;62.00;;;;;;4898381;29;20025;-81
2021/09/01 12:41:49;;;;;;;5.10;2.35;;;20.90;61.10;;;;;;4897221;29;20380;-81
2021/09/01 12:44:16;;;;;;;10.38;2.85;;;21.00;60.80;;;;;;4865983;29;20043;-80
2021/09/01 12:46:42;;;;;;;8.48;3.08;;;21.00;61.30;;;;;;4895713;29;20123;-81
2021/09/01 12:49:25;;;;;;;13.15;3.70;;;20.60;62.40;;;;;;4916327;29;20035;-81